Time;durP1;ratioP1;P1;durP2;ratioP2;P2;SDS_P1;SDS_P2;PMS_P1;PMS_P2;Temp;Humidity;BMP_temperature;BMP_pressure;BME280_temperature;BME280_humidity;BME280_pressure;Samples;Min_cycle;Max_cycle;Signal;HPM_P1;HPM_P2
2023/09/06 00:00:44;;;;;;;4.82;2.92;;;;;;;;;;5104640;28;20107;-78
2023/09/06 00:03:10;;;;;;;6.18;2.75;;;;;;;;;;5091543;28;20494;-78
2023/09/06 00:05:41;;;;;;;3.88;2.63;;;;;;;;;;5095686;28;20041;-78
2023/09/06 00:08:08;;;;;;;5.47;2.95;;;;;;;;;;5096356;28;20039;-78
2023/09/06 00:10:33;;;;;;;5.70;2.78;;;;;;;;;;5088938;28;20038;-78
2023/09/06 00:12:59;;;;;;;5.22;2.95;;;;;;;;;;5090793;28;20032;-78
2023/09/06 00:15:24;;;;;;;5.60;3.10;;;;;;;;;;5091907;28;20031;-78
2023/09/06 00:17:50;;;;;;;4.30;2.75;;;;;;;;;;5091043;28;20036;-77
2023/09/06 00:22:44;;;;;;;4.65;3.33;;;;;;;;;;5096888;28;20032;-77
2023/09/06 00:25:10;;;;;;;4.53;2.83;;;;;;;;;;5091401;28;20085;-78
2023/09/06 00:27:35;;;;;;;4.20;2.70;;;;;;;;;;5090263;28;20040;-78
2023/09/06 00:30:01;;;;;;;4.93;2.67;;;;;;;;;;5090313;28;20035;-78
2023/09/06 00:32:27;;;;;;;3.75;2.53;;;;;;;;;;5090581;28;20062;-78
2023/09/06 00:34:53;;;;;;;4.45;2.70;;;;;;;;;;5083699;28;20032;-78
2023/09/06 00:37:18;;;;;;;5.13;2.85;;;;;;;;;;5089462;28;20408;-78
2023/09/06 00:39:45;;;;;;;6.78;3.25;;;;;;;;;;5092042;28;20108;-78
2023/09/06 00:42:10;;;;;;;4.85;2.75;;;;;;;;;;5084231;28;20039;-78
2023/09/06 00:44:36;;;;;;;7.35;2.80;;;;;;;;;;5087773;28;20028;-79
2023/09/06 00:47:01;;;;;;;8.55;2.67;;;;;;;;;;5090035;28;20070;-79
2023/09/06 00:49:27;;;;;;;6.78;3.10;;;;;;;;;;5089652;28;20016;-79
2023/09/06 00:51:52;;;;;;;4.75;2.80;;;;;;;;;;5088958;28;20034;-78
2023/09/06 00:54:18;;;;;;;5.72;2.95;;;;;;;;;;5091032;28;20028;-79
2023/09/06 00:56:45;;;;;;;8.15;3.10;;;;;;;;;;5089387;28;20063;-78
2023/09/06 00:59:12;;;;;;;4.13;2.72;;;;;;;;;;5084198;28;20054;-78
2023/09/06 01:01:38;;;;;;;4.10;2.78;;;;;;;;;;5089205;28;20128;-78
2023/09/06 01:04:04;;;;;;;5.50;3.08;;;;;;;;;;5056809;28;20513;-78
2023/09/06 01:06:29;;;;;;;7.63;3.03;;;;;;;;;;5091128;28;20067;-78
2023/09/06 01:08:56;;;;;;;4.97;2.80;;;;;;;;;;5073320;28;20020;-78
2023/09/06 01:11:22;;;;;;;5.45;3.03;;;;;;;;;;5074291;28;20294;-78
2023/09/06 01:13:51;;;;;;;4.82;2.85;;;;;;;;;;5089627;28;20062;-78
2023/09/06 01:16:23;;;;;;;5.03;3.00;;;;;;;;;;5090348;28;20032;-78
2023/09/06 01:18:48;;;;;;;3.83;2.83;;;;;;;;;;5087742;28;20032;-78
2023/09/06 01:21:14;;;;;;;4.47;2.63;;;;;;;;;;5083719;28;20024;-78
2023/09/06 01:23:40;;;;;;;5.95;3.00;;;;;;;;;;5089564;28;20068;-79
2023/09/06 01:26:05;;;;;;;10.10;3.10;;;;;;;;;;5083412;28;20054;-78
2023/09/06 01:28:31;;;;;;;6.40;2.95;;;;;;;;;;5091243;28;20485;-78
2023/09/06 01:30:57;;;;;;;4.82;3.00;;;;;;;;;;5073235;28;20036;-78
2023/09/06 01:33:22;;;;;;;4.97;2.83;;;;;;;;;;5073026;28;20043;-78
2023/09/06 01:35:51;;;;;;;6.10;2.95;;;;;;;;;;5089370;28;20040;-78
2023/09/06 01:38:16;;;;;;;3.97;2.90;;;;;;;;;;5069524;28;20466;-78
2023/09/06 01:40:42;;;;;;;4.55;3.05;;;;;;;;;;5084062;28;20051;-77
2023/09/06 01:43:08;;;;;;;6.70;2.88;;;;;;;;;;5071688;28;20040;-77
2023/09/06 01:45:35;;;;;;;5.30;2.85;;;;;;;;;;5090858;28;20043;-78
2023/09/06 01:48:02;;;;;;;4.55;2.83;;;;;;;;;;5089351;28;20074;-77
2023/09/06 01:50:28;;;;;;;5.30;2.67;;;;;;;;;;5072508;28;20157;-77
2023/09/06 01:52:55;;;;;;;5.65;2.85;;;;;;;;;;5081929;28;20044;-78
2023/09/06 01:55:21;;;;;;;5.93;3.10;;;;;;;;;;5084468;28;20024;-77
2023/09/06 01:57:47;;;;;;;4.40;3.00;;;;;;;;;;5091145;28;20028;-78
2023/09/06 02:00:28;;;;;;;6.18;3.03;;;;;;;;;;5088706;28;20478;-78
2023/09/06 02:02:57;;;;;;;5.15;3.00;;;;;;;;;;5090433;28;20035;-78
2023/09/06 02:05:22;;;;;;;9.18;3.25;;;;;;;;;;5088804;28;20084;-78
2023/09/06 02:07:48;;;;;;;6.30;3.00;;;;;;;;;;5089050;28;20044;-78
2023/09/06 02:10:13;;;;;;;4.57;3.00;;;;;;;;;;5089089;28;20031;-77
2023/09/06 02:12:39;;;;;;;4.88;3.20;;;;;;;;;;5089688;28;20024;-78
2023/09/06 02:15:05;;;;;;;4.95;3.00;;;;;;;;;;5089227;28;20012;-77
2023/09/06 02:17:31;;;;;;;6.93;3.03;;;;;;;;;;5055844;28;20822;-78
2023/09/06 02:19:57;;;;;;;4.43;2.80;;;;;;;;;;5089336;28;20033;-77
2023/09/06 02:22:22;;;;;;;7.03;2.92;;;;;;;;;;5073060;28;20036;-78
2023/09/06 02:24:48;;;;;;;6.22;3.22;;;;;;;;;;5061890;28;20031;-78
2023/09/06 02:27:13;;;;;;;6.18;3.33;;;;;;;;;;5090316;28;20048;-78
2023/09/06 02:29:40;;;;;;;4.30;2.75;;;;;;;;;;5095183;28;20028;-77
2023/09/06 02:32:05;;;;;;;5.07;2.88;;;;;;;;;;5091052;28;20032;-78
2023/09/06 02:34:31;;;;;;;5.03;2.75;;;;;;;;;;5093019;28;20479;-78
2023/09/06 02:36:56;;;;;;;4.05;2.92;;;;;;;;;;5075289;28;20484;-79
2023/09/06 02:39:22;;;;;;;6.75;2.75;;;;;;;;;;5091897;28;20081;-79
2023/09/06 02:41:47;;;;;;;4.88;3.55;;;;;;;;;;5091530;28;20126;-79
2023/09/06 02:44:13;;;;;;;6.32;2.85;;;;;;;;;;5075081;28;20023;-79
2023/09/06 02:46:39;;;;;;;6.95;2.63;;;;;;;;;;5092370;28;20040;-78
2023/09/06 02:49:12;;;;;;;4.50;2.75;;;;;;;;;;5092163;28;20101;-78
2023/09/06 02:51:43;;;;;;;5.47;2.85;;;;;;;;;;5092714;28;20040;-78
2023/09/06 02:54:09;;;;;;;6.32;2.80;;;;;;;;;;5094829;28;20031;-78
2023/09/06 02:56:37;;;;;;;5.20;2.72;;;;;;;;;;5101233;28;20505;-78
2023/09/06 02:59:12;;;;;;;6.93;2.90;;;;;;;;;;5075764;28;20040;-78
2023/09/06 03:01:44;;;;;;;5.63;2.90;;;;;;;;;;5092762;28;20028;-78
2023/09/06 03:04:13;;;;;;;5.68;3.17;;;;;;;;;;5097258;28;20084;-78
2023/09/06 03:06:39;;;;;;;4.78;2.80;;;;;;;;;;5081344;28;20131;-78
2023/09/06 03:09:06;;;;;;;4.20;2.72;;;;;;;;;;5080390;28;20080;-78
2023/09/06 03:11:32;;;;;;;6.03;3.05;;;;;;;;;;5096451;28;20050;-79
2023/09/06 03:13:58;;;;;;;4.45;2.92;;;;;;;;;;5094159;28;20498;-78
2023/09/06 03:16:24;;;;;;;7.78;3.08;;;;;;;;;;5092359;28;20060;-78
2023/09/06 03:18:49;;;;;;;4.45;2.70;;;;;;;;;;5091860;28;20039;-78
2023/09/06 03:21:16;;;;;;;4.85;2.90;;;;;;;;;;5093246;28;20551;-78
2023/09/06 03:23:44;;;;;;;5.03;3.08;;;;;;;;;;5116803;27;20116;-78
2023/09/06 03:26:10;;;;;;;4.03;2.83;;;;;;;;;;5091801;28;20179;-78
2023/09/06 03:28:40;;;;;;;5.88;2.53;;;;;;;;;;5091516;28;20032;-78
2023/09/06 03:31:13;;;;;;;6.38;3.00;;;;;;;;;;5091536;28;20084;-78
2023/09/06 03:33:41;;;;;;;6.20;3.10;;;;;;;;;;5091762;28;20044;-79
2023/09/06 03:36:09;;;;;;;9.93;2.88;;;;;;;;;;5092266;28;20035;-79
2023/09/06 03:38:36;;;;;;;5.43;3.08;;;;;;;;;;5071664;28;20028;-79
2023/09/06 03:41:02;;;;;;;4.00;2.58;;;;;;;;;;5086756;28;20020;-78
2023/09/06 03:43:32;;;;;;;6.80;2.53;;;;;;;;;;5091749;28;20032;-79
2023/09/06 03:45:58;;;;;;;4.68;2.70;;;;;;;;;;5075499;28;20028;-79
2023/09/06 03:48:26;;;;;;;5.18;3.00;;;;;;;;;;5091336;28;20040;-79
2023/09/06 03:50:55;;;;;;;4.15;2.83;;;;;;;;;;5091289;28;20019;-78
2023/09/06 03:53:21;;;;;;;6.35;2.70;;;;;;;;;;5074054;28;20032;-79
2023/09/06 03:55:47;;;;;;;8.82;2.90;;;;;;;;;;5091951;28;20139;-79
2023/09/06 03:58:13;;;;;;;4.82;3.10;;;;;;;;;;5097319;28;20040;-79
2023/09/06 04:00:42;;;;;;;5.40;2.70;;;;;;;;;;5088859;28;20027;-79
2023/09/06 04:03:18;;;;;;;6.10;2.80;;;;;;;;;;5090925;28;20036;-78
2023/09/06 04:05:45;;;;;;;6.18;3.00;;;;;;;;;;5074414;28;20168;-78
2023/09/06 04:08:11;;;;;;;4.03;2.65;;;;;;;;;;5091195;28;20467;-78
2023/09/06 04:10:38;;;;;;;3.75;2.53;;;;;;;;;;5074039;28;20047;-78
2023/09/06 04:13:04;;;;;;;7.50;2.90;;;;;;;;;;5073858;28;20085;-78
2023/09/06 04:15:35;;;;;;;4.63;2.60;;;;;;;;;;5069084;28;20029;-78
2023/09/06 04:18:10;;;;;;;5.25;2.58;;;;;;;;;;5090686;28;20039;-78
2023/09/06 04:20:37;;;;;;;6.07;2.78;;;;;;;;;;5090753;28;20394;-78
2023/09/06 04:23:04;;;;;;;4.25;2.70;;;;;;;;;;5072622;28;20472;-79
2023/09/06 04:25:41;;;;;;;4.60;2.92;;;;;;;;;;5090451;28;20052;-79
2023/09/06 04:28:08;;;;;;;8.18;2.92;;;;;;;;;;5090635;28;20036;-78
2023/09/06 04:30:35;;;;;;;3.67;2.78;;;;;;;;;;5090763;28;20035;-79
2023/09/06 04:33:03;;;;;;;5.32;2.50;;;;;;;;;;5090155;28;20023;-79
2023/09/06 04:35:33;;;;;;;6.15;2.70;;;;;;;;;;5070139;28;20020;-78
2023/09/06 04:38:02;;;;;;;8.15;2.95;;;;;;;;;;5069706;28;20032;-78
2023/09/06 04:40:31;;;;;;;5.05;2.50;;;;;;;;;;5084494;28;20032;-78
2023/09/06 04:42:57;;;;;;;5.40;2.70;;;;;;;;;;5088773;28;20494;-78
2023/09/06 04:45:22;;;;;;;9.07;2.85;;;;;;;;;;5090245;28;20028;-78
2023/09/06 04:47:49;;;;;;;6.40;3.00;;;;;;;;;;5088041;28;20039;-78
2023/09/06 04:50:15;;;;;;;4.90;2.75;;;;;;;;;;5090083;28;20036;-79
2023/09/06 04:52:44;;;;;;;6.25;2.67;;;;;;;;;;5089605;28;20044;-79
2023/09/06 04:55:12;;;;;;;5.28;3.17;;;;;;;;;;5089702;28;20032;-79
2023/09/06 04:57:41;;;;;;;5.90;2.90;;;;;;;;;;5071407;28;20043;-79
2023/09/06 05:00:18;;;;;;;6.78;2.80;;;;;;;;;;5090050;28;20124;-79
2023/09/06 05:02:44;;;;;;;7.05;3.33;;;;;;;;;;5090455;28;20138;-78
2023/09/06 05:05:09;;;;;;;5.65;2.75;;;;;;;;;;5071099;28;20086;-80
2023/09/06 05:07:35;;;;;;;6.10;2.65;;;;;;;;;;5091461;28;20438;-79
2023/09/06 05:10:03;;;;;;;5.18;2.60;;;;;;;;;;5090265;28;20024;-79
2023/09/06 05:12:31;;;;;;;7.80;2.95;;;;;;;;;;5085043;28;20033;-78
2023/09/06 05:14:58;;;;;;;5.65;2.78;;;;;;;;;;5083182;28;20486;-79
2023/09/06 05:17:24;;;;;;;6.15;3.05;;;;;;;;;;5091151;28;20498;-79
2023/09/06 05:19:50;;;;;;;5.20;2.72;;;;;;;;;;5099109;28;20533;-79
2023/09/06 05:22:16;;;;;;;5.65;2.70;;;;;;;;;;5073446;28;20032;-80
2023/09/06 05:24:41;;;;;;;8.52;3.05;;;;;;;;;;5072475;28;20599;-79
2023/09/06 05:27:07;;;;;;;8.93;2.80;;;;;;;;;;5087472;28;20071;-81
2023/09/06 05:29:32;;;;;;;5.97;2.80;;;;;;;;;;5091825;28;20105;-79
2023/09/06 05:31:58;;;;;;;5.53;2.67;;;;;;;;;;5088890;28;20032;-79
2023/09/06 05:34:24;;;;;;;6.70;2.50;;;;;;;;;;5090618;28;20028;-79
2023/09/06 05:36:49;;;;;;;6.47;3.00;;;;;;;;;;5089035;28;20035;-79
2023/09/06 05:39:15;;;;;;;4.97;2.80;;;;;;;;;;5089360;28;20023;-80
2023/09/06 05:41:40;;;;;;;5.55;2.72;;;;;;;;;;5085374;28;20121;-79
2023/09/06 05:44:07;;;;;;;6.75;3.10;;;;;;;;;;5083555;28;20028;-80
2023/09/06 05:46:33;;;;;;;5.75;2.72;;;;;;;;;;5089587;28;20128;-78
2023/09/06 05:49:02;;;;;;;4.38;2.47;;;;;;;;;;5086007;28;20380;-79
2023/09/06 05:51:32;;;;;;;8.05;3.40;;;;;;;;;;5089724;28;20483;-79
2023/09/06 05:54:00;;;;;;;7.38;2.72;;;;;;;;;;5072978;28;20410;-80
2023/09/06 05:56:27;;;;;;;7.68;2.78;;;;;;;;;;5069933;28;20176;-80
2023/09/06 05:58:52;;;;;;;8.43;2.88;;;;;;;;;;5085932;28;20649;-80
2023/09/06 06:01:18;;;;;;;5.22;2.65;;;;;;;;;;5069016;28;20032;-80
2023/09/06 06:03:44;;;;;;;5.32;3.05;;;;;;;;;;5085115;28;20012;-80
2023/09/06 06:06:13;;;;;;;6.60;2.97;;;;;;;;;;5091390;28;20091;-80
2023/09/06 06:08:39;;;;;;;9.27;2.88;;;;;;;;;;5094525;28;20172;-80
2023/09/06 06:11:05;;;;;;;4.82;2.80;;;;;;;;;;5094388;28;20036;-79
2023/09/06 06:13:33;;;;;;;4.50;2.83;;;;;;;;;;5094325;28;20032;-79
2023/09/06 06:15:58;;;;;;;6.00;2.70;;;;;;;;;;5095077;28;20123;-80
2023/09/06 06:18:25;;;;;;;7.32;2.88;;;;;;;;;;5093773;28;20142;-79
2023/09/06 06:20:51;;;;;;;8.65;3.88;;;;;;;;;;5094226;28;20538;-79
2023/09/06 06:23:16;;;;;;;6.95;3.10;;;;;;;;;;5077350;28;20107;-80
2023/09/06 06:25:42;;;;;;;4.18;2.78;;;;;;;;;;5089586;28;20063;-79
2023/09/06 06:28:08;;;;;;;10.10;3.10;;;;;;;;;;5093854;28;20094;-79
2023/09/06 06:30:33;;;;;;;10.43;3.30;;;;;;;;;;5094417;28;20543;-80
2023/09/06 06:33:00;;;;;;;6.35;3.10;;;;;;;;;;5092610;28;20044;-79
2023/09/06 06:35:26;;;;;;;4.50;3.05;;;;;;;;;;5093806;28;20036;-80
2023/09/06 06:37:51;;;;;;;5.57;2.63;;;;;;;;;;5093761;28;20035;-80
2023/09/06 06:40:17;;;;;;;4.93;3.05;;;;;;;;;;5092286;28;20051;-79
2023/09/06 06:42:43;;;;;;;4.72;2.75;;;;;;;;;;5090869;28;20024;-79
2023/09/06 06:45:09;;;;;;;4.85;2.90;;;;;;;;;;5074935;28;20503;-80
2023/09/06 06:47:35;;;;;;;4.28;2.85;;;;;;;;;;5092164;28;20060;-80
2023/09/06 06:50:03;;;;;;;5.63;2.97;;;;;;;;;;5093498;28;20065;-80
2023/09/06 06:52:30;;;;;;;7.75;3.03;;;;;;;;;;5084533;28;20544;-80
2023/09/06 06:54:56;;;;;;;10.32;3.47;;;;;;;;;;5092951;28;20525;-80
2023/09/06 06:57:21;;;;;;;4.90;3.00;;;;;;;;;;5092059;28;20056;-80
2023/09/06 06:59:47;;;;;;;7.18;2.97;;;;;;;;;;5097605;28;20024;-80
2023/09/06 07:02:13;;;;;;;4.30;2.97;;;;;;;;;;5092189;28;20027;-80
2023/09/06 07:04:39;;;;;;;5.78;3.00;;;;;;;;;;5092068;28;20086;-80
2023/09/06 07:07:05;;;;;;;4.90;3.10;;;;;;;;;;5093214;28;20095;-80
2023/09/06 07:09:31;;;;;;;7.32;2.88;;;;;;;;;;5091899;28;20493;-79
2023/09/06 07:11:56;;;;;;;8.25;3.35;;;;;;;;;;5092956;28;20024;-80
2023/09/06 07:14:22;;;;;;;6.10;2.85;;;;;;;;;;5093281;28;20032;-81
2023/09/06 07:16:48;;;;;;;6.68;3.33;;;;;;;;;;5091643;28;20036;-81
2023/09/06 07:19:13;;;;;;;5.47;2.67;;;;;;;;;;5092226;28;20035;-79
2023/09/06 07:21:40;;;;;;;5.63;2.80;;;;;;;;;;5092904;28;20024;-81
2023/09/06 07:24:06;;;;;;;10.40;3.17;;;;;;;;;;5090785;28;20060;-81
2023/09/06 07:26:31;;;;;;;6.70;3.20;;;;;;;;;;5090103;28;20422;-80
2023/09/06 07:28:57;;;;;;;7.00;3.00;;;;;;;;;;5093093;28;20036;-79
2023/09/06 07:31:22;;;;;;;6.53;2.67;;;;;;;;;;5094135;28;20498;-80
2023/09/06 07:33:48;;;;;;;11.95;3.00;;;;;;;;;;5092084;28;20051;-80
2023/09/06 07:36:14;;;;;;;5.35;3.10;;;;;;;;;;5092812;28;20110;-79
2023/09/06 07:38:39;;;;;;;4.57;2.53;;;;;;;;;;5092451;28;20479;-80
2023/09/06 07:41:05;;;;;;;7.50;2.80;;;;;;;;;;5089365;28;20016;-81
2023/09/06 07:43:31;;;;;;;6.47;2.67;;;;;;;;;;5074215;28;20043;-80
2023/09/06 07:46:00;;;;;;;9.27;3.70;;;;;;;;;;5090960;28;20395;-80
2023/09/06 07:48:25;;;;;;;6.85;2.80;;;;;;;;;;5092557;28;20548;-79
2023/09/06 07:50:51;;;;;;;6.32;2.50;;;;;;;;;;5092850;28;20023;-81
2023/09/06 07:53:16;;;;;;;9.85;3.00;;;;;;;;;;5092800;28;20486;-82
2023/09/06 07:55:43;;;;;;;5.50;2.83;;;;;;;;;;5092490;28;20028;-81
2023/09/06 07:58:08;;;;;;;7.80;2.85;;;;;;;;;;5092340;28;20032;-78
2023/09/06 08:00:36;;;;;;;7.25;2.70;;;;;;;;;;5092480;28;20027;-80
2023/09/06 08:03:02;;;;;;;7.30;2.58;;;;;;;;;;5092268;28;20028;-79
2023/09/06 08:05:27;;;;;;;7.57;2.58;;;;;;;;;;5091369;28;20020;-80
2023/09/06 08:07:53;;;;;;;7.63;2.35;;;;;;;;;;5091838;28;20513;-82
2023/09/06 08:10:18;;;;;;;6.90;2.60;;;;;;;;;;5091573;28;20031;-80
2023/09/06 08:12:44;;;;;;;8.00;2.67;;;;;;;;;;5092181;28;20043;-81
2023/09/06 08:15:09;;;;;;;6.95;2.55;;;;;;;;;;5099888;28;20032;-80
2023/09/06 08:17:35;;;;;;;4.65;2.33;;;;;;;;;;5092242;28;20036;-81
2023/09/06 08:20:00;;;;;;;8.75;2.88;;;;;;;;;;5072943;28;20106;-81
2023/09/06 08:22:26;;;;;;;7.22;2.20;;;;;;;;;;5092382;28;20127;-81
2023/09/06 08:24:51;;;;;;;4.20;2.20;;;;;;;;;;5091498;28;20024;-81
2023/09/06 08:27:17;;;;;;;5.72;2.35;;;;;;;;;;5074692;28;20051;-80
2023/09/06 08:29:42;;;;;;;6.82;2.50;;;;;;;;;;5089207;28;20130;-81
2023/09/06 08:32:08;;;;;;;6.85;2.38;;;;;;;;;;5091281;28;20510;-82
2023/09/06 08:34:33;;;;;;;3.65;2.28;;;;;;;;;;5090051;28;20055;-81
2023/09/06 08:36:59;;;;;;;5.78;2.35;;;;;;;;;;5089783;28;20047;-80
2023/09/06 08:39:24;;;;;;;6.40;2.55;;;;;;;;;;5092105;28;20032;-81
2023/09/06 08:41:50;;;;;;;9.77;2.40;;;;;;;;;;5090338;28;20031;-80
2023/09/06 08:44:17;;;;;;;4.30;2.15;;;;;;;;;;5089946;28;20024;-81
2023/09/06 08:46:43;;;;;;;5.55;2.40;;;;;;;;;;5091698;28;20045;-81
2023/09/06 08:49:08;;;;;;;7.32;2.10;;;;;;;;;;5091237;28;20505;-80
2023/09/06 08:51:37;;;;;;;5.57;2.53;;;;;;;;;;5089928;28;20043;-80
2023/09/06 08:54:05;;;;;;;4.13;2.30;;;;;;;;;;5089863;28;20046;-81
2023/09/06 08:56:31;;;;;;;8.23;2.30;;;;;;;;;;5090093;28;20097;-81
2023/09/06 08:58:57;;;;;;;4.40;2.13;;;;;;;;;;5091552;28;20024;-82
2023/09/06 09:01:23;;;;;;;5.22;2.22;;;;;;;;;;5091392;28;20111;-81
2023/09/06 09:03:48;;;;;;;4.93;2.42;;;;;;;;;;5091334;28;20112;-81
2023/09/06 09:06:14;;;;;;;5.82;2.30;;;;;;;;;;5091287;28;20410;-79
2023/09/06 09:08:39;;;;;;;8.18;2.50;;;;;;;;;;5089526;28;20118;-81
2023/09/06 09:11:08;;;;;;;4.85;2.15;;;;;;;;;;5092137;28;20038;-79
2023/09/06 09:13:34;;;;;;;4.28;2.17;;;;;;;;;;5089343;28;20038;-80
2023/09/06 09:15:59;;;;;;;6.35;2.13;;;;;;;;;;5089808;28;20044;-81
2023/09/06 09:18:28;;;;;;;4.25;1.92;;;;;;;;;;5090841;28;20024;-80
2023/09/06 09:20:55;;;;;;;4.63;1.70;;;;;;;;;;5090211;28;20035;-81
2023/09/06 09:23:20;;;;;;;6.38;2.30;;;;;;;;;;5084578;28;20024;-81
2023/09/06 09:25:47;;;;;;;7.72;1.90;;;;;;;;;;5090747;28;20052;-81
2023/09/06 09:28:14;;;;;;;5.28;2.20;;;;;;;;;;5091379;28;20032;-83
2023/09/06 09:30:39;;;;;;;4.82;2.17;;;;;;;;;;5090923;28;20078;-82
2023/09/06 09:33:05;;;;;;;4.72;1.80;;;;;;;;;;5091163;28;20016;-81
2023/09/06 09:35:31;;;;;;;4.95;1.95;;;;;;;;;;5089733;28;20040;-82
2023/09/06 09:37:56;;;;;;;3.00;1.52;;;;;;;;;;5091591;28;20142;-81
2023/09/06 09:40:22;;;;;;;5.88;1.80;;;;;;;;;;5090845;28;20430;-81
2023/09/06 09:42:54;;;;;;;5.63;1.80;;;;;;;;;;5078812;28;20024;-81
2023/09/06 09:45:21;;;;;;;4.75;1.73;;;;;;;;;;5096050;28;20114;-82
2023/09/06 09:47:46;;;;;;;4.85;1.73;;;;;;;;;;5096247;28;20020;-81
2023/09/06 09:50:12;;;;;;;5.50;1.90;;;;;;;;;;5089956;28;20520;-82
2023/09/06 09:52:37;;;;;;;4.45;1.83;;;;;;;;;;5097881;28;20271;-82
2023/09/06 09:55:03;;;;;;;2.42;1.40;;;;;;;;;;5088702;28;20040;-82
2023/09/06 09:57:28;;;;;;;7.35;1.98;;;;;;;;;;5076925;28;20115;-82
2023/09/06 09:59:54;;;;;;;3.28;1.48;;;;;;;;;;5095890;28;20506;-82
2023/09/06 10:02:20;;;;;;;5.68;1.85;;;;;;;;;;5095454;28;20386;-82
2023/09/06 10:04:46;;;;;;;4.20;1.65;;;;;;;;;;5097249;28;20032;-82
2023/09/06 10:07:14;;;;;;;2.90;1.50;;;;;;;;;;5092557;28;20097;-82
2023/09/06 10:09:39;;;;;;;5.68;2.00;;;;;;;;;;5098052;28;20678;-82
2023/09/06 10:12:08;;;;;;;4.10;1.70;;;;;;;;;;5097220;28;20106;-81
2023/09/06 10:14:34;;;;;;;6.22;1.65;;;;;;;;;;5096478;28;20109;-82
2023/09/06 10:16:59;;;;;;;3.70;1.70;;;;;;;;;;5076473;28;20028;-82
2023/09/06 10:19:25;;;;;;;4.75;1.40;;;;;;;;;;5097394;28;20039;-82
2023/09/06 10:21:50;;;;;;;2.42;1.42;;;;;;;;;;5096703;28;20462;-81
2023/09/06 10:24:17;;;;;;;4.53;1.60;;;;;;;;;;5079394;28;20499;-82
2023/09/06 10:26:43;;;;;;;5.10;1.98;;;;;;;;;;5096937;28;20070;-81
2023/09/06 10:29:11;;;;;;;4.18;1.30;;;;;;;;;;5094900;28;20072;-83
2023/09/06 10:31:39;;;;;;;4.05;1.52;;;;;;;;;;5095414;28;20107;-81
2023/09/06 10:34:07;;;;;;;3.92;1.35;;;;;;;;;;5099520;28;20376;-81
2023/09/06 10:36:33;;;;;;;4.75;1.70;;;;;;;;;;5073102;28;20031;-81
2023/09/06 10:38:58;;;;;;;4.10;1.90;;;;;;;;;;5095139;28;20122;-82
2023/09/06 10:41:24;;;;;;;2.90;1.60;;;;;;;;;;5096290;28;20020;-82
2023/09/06 10:43:57;;;;;;;3.83;2.15;;;;;;;;;;5097021;28;20080;-83
2023/09/06 10:46:24;;;;;;;4.82;1.73;;;;;;;;;;5094598;28;20040;-82
2023/09/06 10:49:08;;;;;;;4.90;1.40;;;;;;;;;;5089973;28;20084;-81
2023/09/06 10:51:34;;;;;;;3.80;1.77;;;;;;;;;;5095960;28;20035;-82
2023/09/06 10:53:59;;;;;;;4.43;1.75;;;;;;;;;;5091926;28;20392;-82
2023/09/06 10:56:28;;;;;;;2.53;1.10;;;;;;;;;;5093687;28;20564;-82
2023/09/06 10:58:57;;;;;;;3.95;1.70;;;;;;;;;;5085541;28;20387;-82
2023/09/06 11:01:22;;;;;;;5.47;1.80;;;;;;;;;;5093679;28;20036;-81
2023/09/06 11:03:50;;;;;;;3.03;1.63;;;;;;;;;;5093925;28;20020;-83
2023/09/06 11:06:15;;;;;;;5.35;1.83;;;;;;;;;;5092068;28;20077;-82
2023/09/06 11:08:41;;;;;;;3.75;1.55;;;;;;;;;;5072206;28;20457;-82
2023/09/06 11:11:07;;;;;;;3.53;1.40;;;;;;;;;;5093265;28;20032;-83
2023/09/06 11:13:33;;;;;;;5.32;2.25;;;;;;;;;;5093086;28;20045;-83
2023/09/06 11:16:02;;;;;;;3.75;1.55;;;;;;;;;;5072412;28;20415;-82
2023/09/06 11:18:28;;;;;;;2.72;1.60;;;;;;;;;;5090228;28;20421;-82
2023/09/06 11:20:54;;;;;;;5.20;1.80;;;;;;;;;;5093285;28;20024;-82
2023/09/06 11:23:20;;;;;;;3.35;1.77;;;;;;;;;;5090102;28;20030;-81
2023/09/06 11:25:46;;;;;;;3.08;1.30;;;;;;;;;;5092029;28;20491;-81
2023/09/06 11:28:16;;;;;;;6.45;2.10;;;;;;;;;;5092292;28;20039;-81
2023/09/06 11:30:44;;;;;;;3.95;2.13;;;;;;;;;;5092545;28;20587;-81
2023/09/06 11:33:11;;;;;;;4.68;2.55;;;;;;;;;;5091633;28;20020;-82
2023/09/06 11:35:40;;;;;;;3.05;1.23;;;;;;;;;;5091929;28;20438;-81
2023/09/06 11:38:05;;;;;;;4.10;1.75;;;;;;;;;;5091515;28;20028;-82
2023/09/06 11:40:34;;;;;;;3.65;1.48;;;;;;;;;;5088117;28;20123;-82
2023/09/06 11:43:02;;;;;;;4.00;1.67;;;;;;;;;;5092307;28;20016;-82
2023/09/06 11:45:30;;;;;;;5.50;1.40;;;;;;;;;;5090970;28;20036;-81
2023/09/06 11:47:59;;;;;;;2.33;1.33;;;;;;;;;;5091045;28;20024;-82
2023/09/06 11:50:24;;;;;;;3.55;1.38;;;;;;;;;;5074721;28;20060;-82
2023/09/06 11:52:58;;;;;;;3.97;1.48;;;;;;;;;;5091106;28;20060;-82
2023/09/06 11:55:24;;;;;;;6.25;1.63;;;;;;;;;;5091408;28;20070;-82
2023/09/06 11:57:53;;;;;;;3.30;1.50;;;;;;;;;;5092345;28;20039;-82
2023/09/06 12:00:28;;;;;;;2.50;1.20;;;;;;;;;;5072290;28;20388;-82
2023/09/06 12:03:07;;;;;;;4.00;1.52;;;;;;;;;;5075237;28;20060;-83
2023/09/06 12:05:40;;;;;;;5.22;1.38;;;;;;;;;;5090849;28;20032;-84
2023/09/06 12:08:07;;;;;;;3.75;1.10;;;;;;;;;;5081633;28;20042;-81
2023/09/06 12:10:34;;;;;;;4.32;1.52;;;;;;;;;;5091844;28;20023;-81
2023/09/06 12:13:00;;;;;;;4.57;1.40;;;;;;;;;;5092054;28;20435;-83
2023/09/06 12:15:25;;;;;;;4.57;2.00;;;;;;;;;;5090697;28;20028;-82
2023/09/06 12:17:51;;;;;;;2.40;1.40;;;;;;;;;;5092248;28;20066;-82
2023/09/06 12:20:27;;;;;;;6.72;1.55;;;;;;;;;;5091583;28;20027;-81
2023/09/06 12:22:53;;;;;;;4.10;1.40;;;;;;;;;;5090418;28;20032;-82
2023/09/06 12:25:19;;;;;;;4.75;1.33;;;;;;;;;;5089928;28;20540;-82
2023/09/06 12:27:45;;;;;;;3.03;1.50;;;;;;;;;;5091738;28;20044;-83
2023/09/06 12:30:11;;;;;;;4.30;1.83;;;;;;;;;;5089813;28;20043;-82
2023/09/06 12:32:39;;;;;;;2.67;1.20;;;;;;;;;;5057173;28;20411;-82
2023/09/06 12:35:06;;;;;;;5.63;1.63;;;;;;;;;;5089968;28;20043;-82
2023/09/06 12:37:31;;;;;;;5.18;1.55;;;;;;;;;;5090726;28;20058;-83
2023/09/06 12:39:56;;;;;;;3.53;1.77;;;;;;;;;;5091383;28;20537;-83
2023/09/06 12:42:22;;;;;;;3.85;1.50;;;;;;;;;;5088512;28;20024;-81
2023/09/06 12:44:48;;;;;;;3.85;1.88;;;;;;;;;;5091262;28;20047;-82
2023/09/06 12:47:14;;;;;;;4.13;1.85;;;;;;;;;;5089881;28;20066;-82
2023/09/06 12:49:39;;;;;;;4.35;1.65;;;;;;;;;;5092067;28;20031;-82
2023/09/06 12:52:05;;;;;;;4.30;1.80;;;;;;;;;;5091035;28;20036;-83
2023/09/06 12:54:30;;;;;;;3.22;1.48;;;;;;;;;;5092371;28;20477;-81
2023/09/06 12:56:55;;;;;;;4.40;2.05;;;;;;;;;;5090281;28;20074;-83
2023/09/06 12:59:21;;;;;;;2.75;1.80;;;;;;;;;;5085084;28;20510;-81
2023/09/06 13:01:46;;;;;;;3.47;1.58;;;;;;;;;;5083843;28;20032;-82
2023/09/06 13:04:12;;;;;;;6.15;1.70;;;;;;;;;;5090148;28;20039;-83
2023/09/06 13:06:38;;;;;;;2.88;1.45;;;;;;;;;;5089613;28;20542;-83
2023/09/06 13:09:04;;;;;;;2.83;1.77;;;;;;;;;;5084771;28;20023;-82
2023/09/06 13:11:29;;;;;;;5.88;1.80;;;;;;;;;;5089436;28;20044;-81
2023/09/06 13:13:55;;;;;;;4.22;1.58;;;;;;;;;;5090583;28;20085;-82
2023/09/06 13:16:20;;;;;;;3.17;1.35;;;;;;;;;;5090257;28;20034;-82
2023/09/06 13:18:45;;;;;;;3.33;1.60;;;;;;;;;;5069111;28;20491;-83
2023/09/06 13:21:13;;;;;;;5.22;1.92;;;;;;;;;;5084305;28;20139;-83
2023/09/06 13:23:39;;;;;;;5.20;1.30;;;;;;;;;;5089133;28;20111;-82
2023/09/06 13:26:04;;;;;;;3.65;1.30;;;;;;;;;;5090037;28;20476;-83
2023/09/06 13:28:30;;;;;;;4.93;1.52;;;;;;;;;;5090398;28;20036;-83
2023/09/06 13:30:55;;;;;;;2.75;1.48;;;;;;;;;;5090672;28;20016;-81
2023/09/06 13:33:21;;;;;;;3.17;1.50;;;;;;;;;;5084454;28;21035;-82
2023/09/06 13:35:46;;;;;;;3.17;1.60;;;;;;;;;;5090133;28;20036;-82
2023/09/06 13:38:12;;;;;;;6.75;1.70;;;;;;;;;;5089768;28;20032;-82
2023/09/06 13:40:37;;;;;;;4.53;1.67;;;;;;;;;;5089294;28;20024;-82
2023/09/06 13:43:03;;;;;;;2.72;1.58;;;;;;;;;;5089086;28;20012;-82
2023/09/06 13:45:28;;;;;;;4.07;1.60;;;;;;;;;;5089186;28;20040;-82
2023/09/06 13:47:53;;;;;;;4.05;1.60;;;;;;;;;;5088670;28;20077;-81
2023/09/06 13:50:20;;;;;;;4.55;1.63;;;;;;;;;;5090558;28;20121;-82
2023/09/06 13:52:45;;;;;;;4.32;1.60;;;;;;;;;;5094286;28;20023;-82
2023/09/06 13:55:13;;;;;;;4.47;1.77;;;;;;;;;;5097510;28;20039;-82
2023/09/06 13:57:38;;;;;;;3.40;1.63;;;;;;;;;;5089697;28;20144;-82
2023/09/06 14:00:05;;;;;;;8.02;1.60;;;;;;;;;;5090042;28;20483;-83
2023/09/06 14:02:32;;;;;;;4.45;1.17;;;;;;;;;;5089509;28;20375;-82
2023/09/06 14:04:57;;;;;;;5.88;1.88;;;;;;;;;;5089113;28;20056;-83
2023/09/06 14:07:23;;;;;;;5.03;1.40;;;;;;;;;;5088252;28;20499;-83
2023/09/06 14:09:48;;;;;;;4.97;1.48;;;;;;;;;;5088315;28;20059;-83
2023/09/06 14:12:14;;;;;;;4.95;1.42;;;;;;;;;;5087553;28;20031;-81
2023/09/06 14:14:39;;;;;;;1.95;1.20;;;;;;;;;;5089463;28;20047;-81
2023/09/06 14:17:05;;;;;;;4.90;1.45;;;;;;;;;;5088450;28;20027;-83
2023/09/06 14:19:31;;;;;;;3.53;1.40;;;;;;;;;;5090051;28;20028;-83
2023/09/06 14:21:57;;;;;;;5.50;1.30;;;;;;;;;;5088542;28;20027;-83
2023/09/06 14:24:22;;;;;;;5.57;1.95;;;;;;;;;;5088589;28;20036;-81
2023/09/06 14:26:48;;;;;;;7.07;1.60;;;;;;;;;;5089934;28;20137;-82
2023/09/06 14:29:14;;;;;;;5.85;1.70;;;;;;;;;;5093702;28;20415;-81
2023/09/06 14:31:39;;;;;;;4.40;1.58;;;;;;;;;;5075263;28;20494;-82
2023/09/06 14:34:05;;;;;;;3.53;1.55;;;;;;;;;;5092689;28;20540;-80
2023/09/06 14:36:30;;;;;;;2.63;1.30;;;;;;;;;;5092180;28;20027;-83
2023/09/06 14:38:56;;;;;;;4.55;1.45;;;;;;;;;;5094002;28;20499;-81
2023/09/06 14:41:22;;;;;;;3.22;1.35;;;;;;;;;;5092292;28;20051;-82